Ana Sayfa
METAR-TAF:

METAR-TAF

Havaalanları :

Ponca City, Oklahoma, Amerika Birleşik Devletleri

Enlem: 36-43-50N, Boylam: 097-05-59W, yükseklik: 307 m

Güncel hava durumu gözlemi

Rapor saat 09:53 UTC de 23 dakika önce yapıldı.
Rüzgar güneydan 6 kt
Sıcaklık 19°C
Nem 68%
Basınç 1009 hPa
Görüş mesafesi: 16.1 km
Açık gökyüzü

METAR: KPNC 140953Z AUTO 19006KT 10SM CLR 19/13 A2981 RMK AO2 SLP082 T01890133 $

Saat: 05:16 (10:16 UTC)

Tahmin

Rapor saat 05:20 UTC de 4 saat ve 56 dakika önce yapıldı.
Ayın 14'si saat 06 UTC'den ayın 15'si saat 06 UTC'ye kadar geçerli Tahmin
Rüzgar güneydan 13 kt
Görüş mesafesi: 10 km
Açık gökyüzü
Ayın 14'si saat 1400 UTC'den
Rüzgar güney/güneybatıdan 11 kt ve 16 kt'a kadar ani rüzgarlar
Görüş mesafesi: 10 km
Açık gökyüzü
Ayın 15'si saat 0000 UTC'den
Rüzgar güney/güneydoğudan 8 kt
Görüş mesafesi: 10 km
25000 ft yükseklikte az bulutlu

TAF: KPNC 140520Z 1406/1506 18013KT P6SM SKC WS020/20045KT FM141400 21011G16KT P6SM SKC FM150000 16008KT P6SM FEW250

4.000'den fazla havaalanı için hava durumu gözlemleri ve tahminleri (METAR ve TAF raporları).

Kullanılabilir istasyonlar harita üzerinde sarı ve kırmızı noktalarla gösterilir.

İstasyonun adını görmek için fareyi noktanın üzerinde gezdirin.

Sonrasında hava gözlem ve tahminlerini görmek için tıklayın.

Haritayı değiştirmek için: yaklaştırmak için siyah artı işaretli yeşil düğmeye ve uzaklaştırmak için de eksi işaretli düğmeye hızla tıklayın; bitişik haritalar için yeşil okları kullanın.


METAR-TAF: